Terminal Aerodrome Forecast
Issued by NWS Sterling, VA

Current Version | Previous Version | Graphics & Text | Print | Product List | Glossary On
Versions: 1 2 3 4 5 6 7 8 9 10 11 12 13 14 15 16 17 18
279
FTUS41 KLWX 281139 AAC
TAFMRB
TAF AMD
KMRB 281139Z 2812/2912 00000KT 2SM -SHRA BR OVC003
     FM281300 00000KT 3SM BR OVC008
     FM281400 13005KT P6SM OVC020
     FM281800 14007KT 6SM -SHRA VCTS OVC025CB
     FM282100 14007KT 4SM -SHRA VCTS OVC035CB
     FM290400 16005KT 1 1/2SM -SHRA BKN003
     FM290600 17004KT P6SM BKN010
     FM291000 19004KT P6SM BKN050=

USA.gov is the U.S. government's official web portal to all federal, state and local government web resources and services.